Pregled zadnjih 96 podatkov za postajo Žalec (nova) (10027)

Čas Temperatura tal (10 cm) (°C)  Temperatura (2 m) (°C)  Sončno sevanje (W/m2)  Smer vetra (3 m) (°)  Relativna zračna vlaga (2 m) (%RH)  Padavine (mm)  Omočenost lista (1,5 m) (U)  Hitrost vetra (3 m) (km/h)  Temp. rosišča (2m) (°C)  Temp. mokrega term. (2m) (°C) 
7.7.2022 9:00:00 24,1 18 105 191 90 0 0 2,7 16,3 16,9
7.7.2022 8:30:00 24,1 17,8 128 280 92 0 0 1,8 16,6 17,1
7.7.2022 8:00:00 24,1 17,5 108 323 95 0 6 3,1 16,6 17
7.7.2022 7:30:00 24,1 17,1 68 260 97 0 10 2,8 16,6 16,8
7.7.2022 7:00:00 24,2 16,7 40 306 100 0 10 3 16,7 16,7
7.7.2022 6:30:00 24,3 16,8 12 230 99 0,2 10 3,4 16,6 16,7
7.7.2022 6:00:00 24,4 16,8 9 321 97 0,2 10 4,3 16,3 16,5
7.7.2022 5:30:00 24,5 16,8 2 304 98 0 10 4,8 16,5 16,6
7.7.2022 5:00:00 24,6 16,9 0 291 96 0 10 4,1 16,3 16,5
7.7.2022 4:30:00 24,7 17,2 0 330 94 0 10 4,2 16,3 16,7
7.7.2022 4:00:00 24,8 17,2 0 301 96 0 9 3 16,6 16,9
7.7.2022 3:30:00 24,9 17,1 0 288 97 0 10 3,3 16,5 16,8
7.7.2022 3:00:00 25 17,4 0 306 96 0 10 3,6 16,6 16,9
7.7.2022 2:30:00 25,1 17,6 0 235 94 0 10 2,8 16,7 17
7.7.2022 2:00:00 25,2 17,7 0 308 91 0 10 2,6 16,1 16,7
7.7.2022 1:30:00 25,4 18,3 0 266 87 0 10 2,4 16,2 17
7.7.2022 1:00:00 25,5 18,5 0 269 88 0,4 10 2,6 16,5 17,2
7.7.2022 0:30:00 25,6 18,8 0 313 85 0 0 3,8 16,2 17,1
7.7.2022 0:00 25,8 18,8 0 236 83 0 0 0,7 15,8 16,9
6.7.2022 23:30 26 20 0 259 67 0 0 1,2 13,7 16,1
6.7.2022 23:00 26,2 20,3 0 85 65 0 0 1,5 13,5 16,1
6.7.2022 22:30 26,4 21,1 0 177 62 0 0 2,5 13,5 16,4
6.7.2022 22:00 26,6 21,4 0 151 61 0 0 2,8 13,5 16,5
6.7.2022 21:30 26,8 21,9 1 165 60 0 0 3,5 13,7 16,8
6.7.2022 21:00 27 23,4 5 149 55 0 0 6,9 13,8 17,4
6.7.2022 20:30 27,2 24,4 15 115 56 0 0 3,8 15 18,3
6.7.2022 20:00 27,4 25,9 60 174 51 0 0 2,5 15 18,9
6.7.2022 19:30 27,5 26,6 150 149 48 0 0 2,4 14,5 18,8
6.7.2022 19:00 27,6 26,3 135 189 45 0 0 3 13,6 18,3
6.7.2022 18:30 27,8 26,8 107 163 41 0 0 4,3 12,4 17,8
6.7.2022 18:00 27,8 27,5 177 136 41 0 0 4,5 13,1 18,4
6.7.2022 17:30 27,8 28,4 587 102 39 0 0 7,1 13,1 18,7
6.7.2022 17:00 27,8 27,3 243 117 41 0 0 7,4 13 18,3
6.7.2022 16:30 27,8 28,7 571 84 40 0 0 7,3 13,6 19,1
6.7.2022 16:00 27,7 28,7 503 116 39 0 0 4,3 13,3 18,9
6.7.2022 15:30 27,5 28,2 480 131 40 0 0 5,9 13,5 18,8
6.7.2022 15:00 27,3 28,5 757 141 39 0 0 6,4 13 18,7
6.7.2022 14:30 27,3 28,6 643 145 37 0 0 4,7 12,5 18,5
6.7.2022 14:00 27,2 28,6 950 113 38 0 0 6,9 12,7 18,6
6.7.2022 13:30 26,9 28,6 863 88 37 0 0 4,7 12,6 18,5
6.7.2022 13:00 26,4 28,8 918 243 36 0 0 3,6 12,3 18,5
6.7.2022 12:30 26 28,1 891 332 36 0 0 5,3 11,5 17,9
6.7.2022 12:00 25,5 27,6 922 220 38 0 0 4,8 12,1 18
6.7.2022 11:30 25,1 27 880 19 44 0 0 4,2 13,6 18,5
6.7.2022 11:00 24,7 25,5 828 272 55 0 0 4,3 15,7 19,1
6.7.2022 10:30 24,5 24,3 773 283 58 0 0 5,1 15,6 18,7
6.7.2022 10:00 24,3 23,5 709 279 58 0 0 5,8 14,6 17,9
6.7.2022 9:30:00 24,2 22,4 632 250 66 0 0 6,2 15,7 18,1
6.7.2022 9:00:00 24,1 21,2 553 256 74 0 0 5,7 16,3 18
6.7.2022 8:30:00 24,1 19,7 430 249 80 0 0 6,3 16,3 17,5
6.7.2022 8:00:00 24,1 18 171 260 88 0 0 6,9 16,1 16,8
6.7.2022 7:30:00 24,1 18,2 250 297 90 0 1 7,8 16,5 17,2
6.7.2022 7:00:00 24,2 17 186 279 98 0 10 6,5 16,6 16,8
6.7.2022 6:30:00 24,3 16,6 29 305 96 0 10 4,4 16,1 16,3
6.7.2022 6:00:00 24,4 16,4 36 266 99 0 10 4,7 16,2 16,3
6.7.2022 5:30:00 24,5 16,1 14 280 100 0 10 4,7 16,1 16,1
6.7.2022 5:00:00 24,6 16,2 1 292 100 0 10 4,5 16,1 16,2
6.7.2022 4:30:00 24,8 16,5 0 283 100 0 10 4,2 16,4 16,4
6.7.2022 4:00:00 24,9 16,6 0 255 100 0 10 4,3 16,6 16,7
6.7.2022 3:30:00 25,1 16,8 0 262 100 0 10 2,1 16,8 16,9
6.7.2022 3:00:00 25,2 17,2 0 280 99 0 10 5,4 17,1 17,1
6.7.2022 2:30:00 25,4 17,5 0 273 100 0 10 5,5 17,4 17,5
6.7.2022 2:00:00 25,5 17,6 0 267 100 0 10 5,7 17,6 17,7
6.7.2022 1:30:00 25,7 17,9 0 273 100 0 10 4,6 17,9 17,9
6.7.2022 1:00:00 25,9 18,2 0 292 100 0 7 5,3 18,2 18,2
6.7.2022 0:30:00 26,1 18,5 0 310 98 0 5 5 18,1 18,3
6.7.2022 0:00 26,3 19,1 0 291 97 0 5 6,1 18,6 18,8
5.7.2022 23:30 26,4 19,6 0 298 98 0 4 5 19,2 19,4
5.7.2022 23:00 26,6 20,1 0 289 96 0 1 4,5 19,4 19,6
5.7.2022 22:30 26,8 20,8 0 276 95 0 0 4,9 19,9 20,2
5.7.2022 22:00 26,9 21,3 0 294 92 0 2 4,3 20 20,4
5.7.2022 21:30 27,1 22,6 1 231 88 0 10 5,4 20,4 21,1
5.7.2022 21:00 27,3 23,8 12 256 81 0 1 1,7 20,3 21,4
5.7.2022 20:30 27,4 24,5 10 258 73 0 0 1,3 19,5 21,1
5.7.2022 20:00 27,5 25,2 33 142 65 0 0 2,6 18,2 20,5
5.7.2022 19:30 27,7 25,6 72 184 64 0 0 2,8 18,3 20,7
5.7.2022 19:00 27,8 26,1 141 145 61 0 0 3,8 18,1 20,7
5.7.2022 18:30 27,9 26,2 186 119 60 0 0 4 17,9 20,7
5.7.2022 18:00 27,9 26,7 188 162 58 0 0 5,1 17,7 20,7
5.7.2022 17:30 27,9 27,2 341 140 56 0 0 6,1 17,5 20,7
5.7.2022 17:00 27,8 27,6 577 122 56 0 0 7,3 18 21,1
5.7.2022 16:30 27,6 27,6 720 116 59 0 0 8,3 18,8 21,6
5.7.2022 16:00 27,4 27,6 744 124 58 0 0 10,1 18,6 21,5
5.7.2022 15:30 27,1 27,6 746 166 60 0 0 7,9 19,2 21,8
5.7.2022 15:00 26,9 27,4 670 129 59 0 0 6,6 18,6 21,4
5.7.2022 14:30 26,7 27,2 844 101 60 0 0 6,2 18,7 21,4
5.7.2022 14:00 26,6 26,5 587 174 63 0 0 5,8 18,9 21,3
5.7.2022 13:30 23,1 26,1 706 156 67 1,4 0 5,6 19,3 21,5
5.7.2022 13:00 25,6 25,8 931 185 68 0,2 0 4,4 19,6 21,5
5.7.2022 12:30 25,1 25,1 887 181 72 0 0 3,9 19,6 21,3
5.7.2022 12:00 24,8 24 670 282 76 0 0 3,8 19,5 20,9
5.7.2022 11:30 24,4 23,5 599 240 78 0 0 3,5 19,5 20,8
5.7.2022 11:00 24,1 21,8 719 165 97 0 0 3,1 21,3 21,5
5.7.2022 10:30 23,9 20,6 330 275 100 0 0 3,8 20,6 20,7
5.7.2022 10:00 23,7 20,2 314 264 100 0 0 4,5 20,2 20,2
5.7.2022 9:30:00 23,6 19,6 279 288 100 0 0 4,6 19,6 19,6